sensor_id;sensor_type;location;lat;lon;timestamp;pressure;altitude;pressure_sealevel;temperature;humidity
62510;BME280;48558;48.242;11.654;2023-02-14T00:00:11;98126.72;;;0.14;100.00
62510;BME280;48558;48.242;11.654;2023-02-14T00:04:24;98124.91;;;0.18;100.00
62510;BME280;48558;48.242;11.654;2023-02-14T00:08:46;98124.19;;;0.21;100.00
62510;BME280;48558;48.242;11.654;2023-02-14T00:12:59;98130.84;;;-0.08;100.00
62510;BME280;48558;48.242;11.654;2023-02-14T00:17:11;98126.63;;;-0.06;100.00
62510;BME280;48558;48.242;11.654;2023-02-14T00:21:24;98120.78;;;-0.08;100.00
62510;BME280;48558;48.242;11.654;2023-02-14T00:25:36;98107.88;;;-0.11;100.00
62510;BME280;48558;48.242;11.654;2023-02-14T00:29:49;98125.16;;;-0.03;100.00
62510;BME280;48558;48.242;11.654;2023-02-14T00:34:02;98117.28;;;0.23;100.00
62510;BME280;48558;48.242;11.654;2023-02-14T00:38:15;98127.44;;;-0.05;100.00
62510;BME280;48558;48.242;11.654;2023-02-14T00:42:28;98127.09;;;-0.04;100.00
62510;BME280;48558;48.242;11.654;2023-02-14T00:46:41;98120.34;;;-0.10;100.00
62510;BME280;48558;48.242;11.654;2023-02-14T00:50:54;98137.56;;;-0.18;100.00
62510;BME280;48558;48.242;11.654;2023-02-14T00:55:07;98123.69;;;-0.01;100.00
62510;BME280;48558;48.242;11.654;2023-02-14T00:59:19;98125.84;;;0.10;100.00
62510;BME280;48558;48.242;11.654;2023-02-14T01:03:32;98115.53;;;-0.01;100.00
62510;BME280;48558;48.242;11.654;2023-02-14T01:07:45;98125.81;;;-0.22;100.00
62510;BME280;48558;48.242;11.654;2023-02-14T01:11:57;98145.91;;;-0.11;100.00
62510;BME280;48558;48.242;11.654;2023-02-14T01:16:12;98146.38;;;0.07;100.00
62510;BME280;48558;48.242;11.654;2023-02-14T01:20:44;98134.31;;;0.20;100.00
62510;BME280;48558;48.242;11.654;2023-02-14T01:24:57;98132.34;;;0.21;100.00
62510;BME280;48558;48.242;11.654;2023-02-14T01:29:26;98125.59;;;0.15;100.00
62510;BME280;48558;48.242;11.654;2023-02-14T01:33:55;98117.88;;;0.17;100.00
62510;BME280;48558;48.242;11.654;2023-02-14T01:38:08;98121.84;;;0.04;100.00
62510;BME280;48558;48.242;11.654;2023-02-14T01:42:21;98140.50;;;0.21;100.00
62510;BME280;48558;48.242;11.654;2023-02-14T01:46:35;98145.31;;;-0.04;100.00
62510;BME280;48558;48.242;11.654;2023-02-14T01:50:51;98139.25;;;-0.13;100.00
62510;BME280;48558;48.242;11.654;2023-02-14T01:55:08;98149.22;;;-0.17;100.00
62510;BME280;48558;48.242;11.654;2023-02-14T01:59:25;98145.22;;;-0.08;100.00
62510;BME280;48558;48.242;11.654;2023-02-14T02:03:46;98141.34;;;-0.07;100.00
62510;BME280;48558;48.242;11.654;2023-02-14T02:08:11;98127.28;;;-0.40;100.00
62510;BME280;48558;48.242;11.654;2023-02-14T02:12:24;98133.13;;;-0.10;100.00
62510;BME280;48558;48.242;11.654;2023-02-14T02:31:26;98118.94;;;0.12;100.00
62510;BME280;48558;48.242;11.654;2023-02-14T02:36:37;98117.69;;;-0.22;100.00
62510;BME280;48558;48.242;11.654;2023-02-14T02:41:09;98114.13;;;-0.38;100.00
62510;BME280;48558;48.242;11.654;2023-02-14T02:50:35;98107.38;;;-0.44;100.00
62510;BME280;48558;48.242;11.654;2023-02-14T02:55:19;98111.88;;;-0.20;100.00
62510;BME280;48558;48.242;11.654;2023-02-14T02:59:40;98111.94;;;-0.05;100.00
62510;BME280;48558;48.242;11.654;2023-02-14T03:04:04;98107.97;;;-0.07;100.00
62510;BME280;48558;48.242;11.654;2023-02-14T03:08:38;98090.34;;;-0.13;100.00
62510;BME280;48558;48.242;11.654;2023-02-14T03:26:33;98108.25;;;-0.40;100.00
62510;BME280;48558;48.242;11.654;2023-02-14T03:35:45;98115.59;;;-0.13;100.00
62510;BME280;48558;48.242;11.654;2023-02-14T03:40:33;98107.00;;;-0.15;100.00
62510;BME280;48558;48.242;11.654;2023-02-14T03:44:51;98123.53;;;-0.20;100.00
62510;BME280;48558;48.242;11.654;2023-02-14T03:49:09;98118.28;;;-0.56;100.00
62510;BME280;48558;48.242;11.654;2023-02-14T03:53:27;98130.38;;;-0.26;100.00
62510;BME280;48558;48.242;11.654;2023-02-14T03:57:52;98113.31;;;-0.11;100.00
62510;BME280;48558;48.242;11.654;2023-02-14T04:02:18;98117.63;;;-0.10;100.00
62510;BME280;48558;48.242;11.654;2023-02-14T04:06:34;98108.06;;;-0.47;100.00
62510;BME280;48558;48.242;11.654;2023-02-14T04:10:48;98106.56;;;-0.60;100.00
62510;BME280;48558;48.242;11.654;2023-02-14T04:15:02;98100.28;;;-0.48;100.00
62510;BME280;48558;48.242;11.654;2023-02-14T04:19:15;98118.28;;;-0.28;100.00
62510;BME280;48558;48.242;11.654;2023-02-14T04:23:33;98100.16;;;-0.52;100.00
62510;BME280;48558;48.242;11.654;2023-02-14T04:27:46;98106.59;;;-0.44;100.00
62510;BME280;48558;48.242;11.654;2023-02-14T04:31:59;98113.63;;;-0.43;100.00
62510;BME280;48558;48.242;11.654;2023-02-14T04:36:11;98106.97;;;-0.30;100.00
62510;BME280;48558;48.242;11.654;2023-02-14T04:40:24;98099.28;;;-0.56;100.00
62510;BME280;48558;48.242;11.654;2023-02-14T04:44:36;98111.09;;;-0.36;100.00
62510;BME280;48558;48.242;11.654;2023-02-14T04:48:49;98095.19;;;-0.78;100.00
62510;BME280;48558;48.242;11.654;2023-02-14T04:53:08;98093.16;;;-0.81;100.00
62510;BME280;48558;48.242;11.654;2023-02-14T04:57:20;98077.47;;;-0.87;100.00
62510;BME280;48558;48.242;11.654;2023-02-14T05:01:33;98085.31;;;-0.70;100.00
62510;BME280;48558;48.242;11.654;2023-02-14T05:05:45;98089.19;;;-0.71;100.00
62510;BME280;48558;48.242;11.654;2023-02-14T05:09:58;98085.94;;;-0.61;100.00
62510;BME280;48558;48.242;11.654;2023-02-14T05:14:11;98070.56;;;-0.85;100.00
62510;BME280;48558;48.242;11.654;2023-02-14T05:18:25;98081.91;;;-0.67;100.00
62510;BME280;48558;48.242;11.654;2023-02-14T05:22:38;98062.97;;;-1.07;100.00
62510;BME280;48558;48.242;11.654;2023-02-14T05:26:51;98072.50;;;-0.85;100.00
62510;BME280;48558;48.242;11.654;2023-02-14T05:31:03;98069.88;;;-1.21;100.00
62510;BME280;48558;48.242;11.654;2023-02-14T05:35:16;98076.00;;;-0.85;100.00
62510;BME280;48558;48.242;11.654;2023-02-14T05:39:29;98067.06;;;-0.85;100.00
62510;BME280;48558;48.242;11.654;2023-02-14T05:43:42;98089.22;;;-0.55;100.00
62510;BME280;48558;48.242;11.654;2023-02-14T05:47:57;98076.06;;;-0.69;100.00
62510;BME280;48558;48.242;11.654;2023-02-14T05:52:09;98078.81;;;-0.53;100.00
62510;BME280;48558;48.242;11.654;2023-02-14T05:56:22;98090.69;;;-1.25;100.00
62510;BME280;48558;48.242;11.654;2023-02-14T06:00:34;98095.63;;;-1.15;100.00
62510;BME280;48558;48.242;11.654;2023-02-14T06:04:51;98093.66;;;-0.91;100.00
62510;BME280;48558;48.242;11.654;2023-02-14T06:09:03;98097.88;;;-1.05;100.00
62510;BME280;48558;48.242;11.654;2023-02-14T06:13:16;98096.09;;;-0.74;100.00
62510;BME280;48558;48.242;11.654;2023-02-14T06:17:29;98101.47;;;-0.89;100.00
62510;BME280;48558;48.242;11.654;2023-02-14T06:21:41;98097.47;;;-1.19;100.00
62510;BME280;48558;48.242;11.654;2023-02-14T06:25:54;98099.66;;;-0.97;100.00
62510;BME280;48558;48.242;11.654;2023-02-14T06:30:07;98098.84;;;-1.25;100.00
62510;BME280;48558;48.242;11.654;2023-02-14T06:34:20;98100.56;;;-0.93;100.00
62510;BME280;48558;48.242;11.654;2023-02-14T06:38:33;98101.22;;;-0.84;100.00
62510;BME280;48558;48.242;11.654;2023-02-14T06:42:46;98116.41;;;-0.67;100.00
62510;BME280;48558;48.242;11.654;2023-02-14T06:46:58;98102.63;;;-0.75;100.00
62510;BME280;48558;48.242;11.654;2023-02-14T06:51:11;98112.53;;;-0.54;100.00
62510;BME280;48558;48.242;11.654;2023-02-14T06:55:24;98112.97;;;-0.52;100.00
62510;BME280;48558;48.242;11.654;2023-02-14T06:59:36;98087.38;;;-1.07;100.00
62510;BME280;48558;48.242;11.654;2023-02-14T07:03:49;98093.31;;;-0.89;100.00
62510;BME280;48558;48.242;11.654;2023-02-14T07:08:02;98103.41;;;-0.62;100.00
62510;BME280;48558;48.242;11.654;2023-02-14T07:12:14;98109.75;;;-0.70;100.00
62510;BME280;48558;48.242;11.654;2023-02-14T07:16:27;98107.16;;;-0.66;100.00
62510;BME280;48558;48.242;11.654;2023-02-14T07:20:40;98104.00;;;-0.68;100.00
62510;BME280;48558;48.242;11.654;2023-02-14T07:24:53;98108.53;;;-0.73;100.00
62510;BME280;48558;48.242;11.654;2023-02-14T07:29:05;98093.97;;;-0.80;100.00
62510;BME280;48558;48.242;11.654;2023-02-14T07:33:17;98081.00;;;-0.87;100.00
62510;BME280;48558;48.242;11.654;2023-02-14T07:37:34;98092.69;;;-0.70;100.00
62510;BME280;48558;48.242;11.654;2023-02-14T07:41:46;98083.50;;;-0.66;100.00
62510;BME280;48558;48.242;11.654;2023-02-14T07:46:00;98072.19;;;-0.96;100.00
62510;BME280;48558;48.242;11.654;2023-02-14T07:50:14;98063.78;;;-0.63;100.00
62510;BME280;48558;48.242;11.654;2023-02-14T07:54:27;98082.34;;;-0.93;100.00
62510;BME280;48558;48.242;11.654;2023-02-14T07:58:39;98074.16;;;-0.53;100.00
62510;BME280;48558;48.242;11.654;2023-02-14T08:02:52;98070.06;;;-0.31;100.00
62510;BME280;48558;48.242;11.654;2023-02-14T08:07:07;98071.00;;;-0.55;100.00
62510;BME280;48558;48.242;11.654;2023-02-14T08:11:19;98063.06;;;-0.48;100.00
62510;BME280;48558;48.242;11.654;2023-02-14T08:15:50;98051.66;;;-0.53;100.00
62510;BME280;48558;48.242;11.654;2023-02-14T08:20:15;98057.03;;;-0.26;100.00
62510;BME280;48558;48.242;11.654;2023-02-14T08:24:28;98063.28;;;-0.10;100.00
62510;BME280;48558;48.242;11.654;2023-02-14T08:28:41;98051.69;;;0.25;100.00
62510;BME280;48558;48.242;11.654;2023-02-14T08:32:54;98042.13;;;0.31;100.00
62510;BME280;48558;48.242;11.654;2023-02-14T08:37:06;98051.97;;;0.54;100.00
62510;BME280;48558;48.242;11.654;2023-02-14T08:41:18;98046.03;;;0.49;100.00
62510;BME280;48558;48.242;11.654;2023-02-14T08:45:31;98054.81;;;0.77;100.00
62510;BME280;48558;48.242;11.654;2023-02-14T08:49:43;98052.28;;;0.68;100.00
62510;BME280;48558;48.242;11.654;2023-02-14T08:53:56;98048.91;;;0.56;100.00
62510;BME280;48558;48.242;11.654;2023-02-14T08:58:08;98065.78;;;0.81;100.00
62510;BME280;48558;48.242;11.654;2023-02-14T09:02:21;98071.53;;;0.95;100.00
62510;BME280;48558;48.242;11.654;2023-02-14T09:06:37;98064.28;;;0.33;100.00
62510;BME280;48558;48.242;11.654;2023-02-14T09:10:50;98078.78;;;0.06;100.00
62510;BME280;48558;48.242;11.654;2023-02-14T09:15:03;98081.22;;;0.42;100.00
62510;BME280;48558;48.242;11.654;2023-02-14T09:19:16;98064.63;;;0.82;100.00
62510;BME280;48558;48.242;11.654;2023-02-14T09:23:29;98073.00;;;0.73;100.00
62510;BME280;48558;48.242;11.654;2023-02-14T09:27:41;98074.03;;;0.49;100.00
62510;BME280;48558;48.242;11.654;2023-02-14T09:31:59;98068.59;;;1.03;100.00
62510;BME280;48558;48.242;11.654;2023-02-14T09:36:12;98064.97;;;0.61;100.00
62510;BME280;48558;48.242;11.654;2023-02-14T09:40:45;98068.78;;;0.76;100.00
62510;BME280;48558;48.242;11.654;2023-02-14T09:45:10;98060.84;;;0.86;100.00
62510;BME280;48558;48.242;11.654;2023-02-14T09:49:35;98070.47;;;1.18;100.00
62510;BME280;48558;48.242;11.654;2023-02-14T09:53:52;98059.66;;;1.64;100.00
62510;BME280;48558;48.242;11.654;2023-02-14T09:58:28;98051.81;;;1.81;100.00
62510;BME280;48558;48.242;11.654;2023-02-14T10:03:29;98054.94;;;1.83;100.00
62510;BME280;48558;48.242;11.654;2023-02-14T10:11:57;98046.34;;;2.04;100.00
62510;BME280;48558;48.242;11.654;2023-02-14T10:25:15;98050.53;;;2.47;100.00
62510;BME280;48558;48.242;11.654;2023-02-14T10:29:32;98039.06;;;2.34;100.00
62510;BME280;48558;48.242;11.654;2023-02-14T10:33:58;98040.94;;;2.56;100.00
62510;BME280;48558;48.242;11.654;2023-02-14T10:38:46;98021.53;;;2.61;100.00
62510;BME280;48558;48.242;11.654;2023-02-14T10:48:23;98035.28;;;2.98;100.00
62510;BME280;48558;48.242;11.654;2023-02-14T10:57:30;98024.22;;;2.58;100.00
62510;BME280;48558;48.242;11.654;2023-02-14T11:01:45;98019.28;;;3.30;100.00
62510;BME280;48558;48.242;11.654;2023-02-14T11:05:58;97997.78;;;2.92;100.00
62510;BME280;48558;48.242;11.654;2023-02-14T11:10:13;98000.41;;;2.84;100.00
62510;BME280;48558;48.242;11.654;2023-02-14T11:18:41;97981.31;;;3.58;100.00
62510;BME280;48558;48.242;11.654;2023-02-14T11:22:53;97994.25;;;3.61;100.00
62510;BME280;48558;48.242;11.654;2023-02-14T11:31:33;97982.66;;;3.34;100.00
62510;BME280;48558;48.242;11.654;2023-02-14T11:35:50;97969.19;;;3.55;100.00
62510;BME280;48558;48.242;11.654;2023-02-14T11:40:04;97973.25;;;3.32;100.00
62510;BME280;48558;48.242;11.654;2023-02-14T11:44:21;97969.47;;;3.07;100.00
62510;BME280;48558;48.242;11.654;2023-02-14T11:48:36;97961.72;;;2.79;100.00
62510;BME280;48558;48.242;11.654;2023-02-14T11:52:52;97953.78;;;2.37;100.00
62510;BME280;48558;48.242;11.654;2023-02-14T11:57:10;97957.44;;;2.48;100.00
62510;BME280;48558;48.242;11.654;2023-02-14T12:01:31;97952.38;;;3.13;100.00
62510;BME280;48558;48.242;11.654;2023-02-14T12:05:48;97937.28;;;3.26;100.00
62510;BME280;48558;48.242;11.654;2023-02-14T12:14:32;97927.88;;;3.20;100.00
62510;BME280;48558;48.242;11.654;2023-02-14T12:18:55;97920.75;;;3.52;100.00
62510;BME280;48558;48.242;11.654;2023-02-14T12:23:39;97915.91;;;3.79;100.00
62510;BME280;48558;48.242;11.654;2023-02-14T12:28:18;97922.69;;;3.99;100.00
62510;BME280;48558;48.242;11.654;2023-02-14T12:32:34;97908.75;;;3.64;100.00
62510;BME280;48558;48.242;11.654;2023-02-14T13:04:47;97896.00;;;2.61;100.00
62510;BME280;48558;48.242;11.654;2023-02-14T13:23:28;97869.69;;;3.63;100.00
62510;BME280;48558;48.242;11.654;2023-02-14T13:27:46;97868.25;;;3.33;100.00
62510;BME280;48558;48.242;11.654;2023-02-14T13:32:01;97859.47;;;3.53;100.00
62510;BME280;48558;48.242;11.654;2023-02-14T13:36:15;97867.19;;;3.41;100.00
62510;BME280;48558;48.242;11.654;2023-02-14T13:40:29;97872.28;;;3.06;100.00
62510;BME280;48558;48.242;11.654;2023-02-14T13:44:48;97863.47;;;3.67;100.00
62510;BME280;48558;48.242;11.654;2023-02-14T13:49:26;97859.41;;;3.03;100.00
62510;BME280;48558;48.242;11.654;2023-02-14T13:53:47;97866.50;;;2.74;100.00
62510;BME280;48558;48.242;11.654;2023-02-14T13:58:06;97859.75;;;3.01;100.00
62510;BME280;48558;48.242;11.654;2023-02-14T14:02:51;97853.66;;;3.62;100.00
62510;BME280;48558;48.242;11.654;2023-02-14T14:07:16;97848.41;;;3.36;100.00
62510;BME280;48558;48.242;11.654;2023-02-14T14:20:37;97842.56;;;2.97;100.00
62510;BME280;48558;48.242;11.654;2023-02-14T14:29:25;97841.28;;;2.17;100.00
62510;BME280;48558;48.242;11.654;2023-02-14T14:33:56;97839.75;;;1.90;100.00
62510;BME280;48558;48.242;11.654;2023-02-14T14:38:12;97836.78;;;2.32;100.00
62510;BME280;48558;48.242;11.654;2023-02-14T14:42:29;97811.97;;;2.77;100.00
62510;BME280;48558;48.242;11.654;2023-02-14T14:46:45;97817.69;;;3.06;100.00
62510;BME280;48558;48.242;11.654;2023-02-14T14:50:58;97806.03;;;2.72;100.00
62510;BME280;48558;48.242;11.654;2023-02-14T14:55:39;97814.25;;;2.35;100.00
62510;BME280;48558;48.242;11.654;2023-02-14T15:00:18;97802.25;;;2.47;100.00
62510;BME280;48558;48.242;11.654;2023-02-14T15:04:34;97807.69;;;2.43;100.00
62510;BME280;48558;48.242;11.654;2023-02-14T15:08:48;97797.16;;;2.42;100.00
62510;BME280;48558;48.242;11.654;2023-02-14T15:13:02;97801.50;;;2.46;100.00
62510;BME280;48558;48.242;11.654;2023-02-14T15:17:33;97807.38;;;2.48;100.00
62510;BME280;48558;48.242;11.654;2023-02-14T15:21:46;97812.91;;;2.22;100.00
62510;BME280;48558;48.242;11.654;2023-02-14T15:25:59;97809.28;;;1.55;100.00
62510;BME280;48558;48.242;11.654;2023-02-14T15:34:32;97795.22;;;1.27;100.00
62510;BME280;48558;48.242;11.654;2023-02-14T15:38:47;97820.63;;;1.61;100.00
62510;BME280;48558;48.242;11.654;2023-02-14T15:47:30;97812.78;;;1.56;100.00
62510;BME280;48558;48.242;11.654;2023-02-14T15:51:43;97819.69;;;1.50;100.00
62510;BME280;48558;48.242;11.654;2023-02-14T15:56:11;97824.53;;;1.60;100.00
62510;BME280;48558;48.242;11.654;2023-02-14T16:00:31;97827.50;;;1.51;100.00
62510;BME280;48558;48.242;11.654;2023-02-14T16:04:45;97805.53;;;1.14;100.00
62510;BME280;48558;48.242;11.654;2023-02-14T16:08:57;97811.38;;;1.16;100.00
62510;BME280;48558;48.242;11.654;2023-02-14T16:17:35;97822.59;;;0.89;100.00
62510;BME280;48558;48.242;11.654;2023-02-14T16:21:55;97828.91;;;0.93;100.00
62510;BME280;48558;48.242;11.654;2023-02-14T16:26:12;97818.97;;;1.04;100.00
62510;BME280;48558;48.242;11.654;2023-02-14T16:30:25;97831.16;;;0.91;100.00
62510;BME280;48558;48.242;11.654;2023-02-14T16:34:48;97826.09;;;0.89;100.00
62510;BME280;48558;48.242;11.654;2023-02-14T16:39:02;97809.09;;;0.73;100.00
62510;BME280;48558;48.242;11.654;2023-02-14T16:43:17;97828.00;;;0.66;100.00
62510;BME280;48558;48.242;11.654;2023-02-14T16:47:31;97826.72;;;0.79;100.00
62510;BME280;48558;48.242;11.654;2023-02-14T16:51:45;97839.19;;;0.61;100.00
62510;BME280;48558;48.242;11.654;2023-02-14T16:55:58;97836.81;;;0.59;100.00
62510;BME280;48558;48.242;11.654;2023-02-14T17:00:12;97840.28;;;0.56;100.00
62510;BME280;48558;48.242;11.654;2023-02-14T17:04:25;97831.13;;;0.07;100.00
62510;BME280;48558;48.242;11.654;2023-02-14T17:08:39;97834.06;;;0.37;100.00
62510;BME280;48558;48.242;11.654;2023-02-14T17:12:53;97828.56;;;0.33;100.00
62510;BME280;48558;48.242;11.654;2023-02-14T17:17:08;97840.63;;;0.55;100.00
62510;BME280;48558;48.242;11.654;2023-02-14T17:21:22;97845.91;;;0.48;100.00
62510;BME280;48558;48.242;11.654;2023-02-14T17:25:35;97837.22;;;0.20;100.00
62510;BME280;48558;48.242;11.654;2023-02-14T17:29:47;97830.63;;;0.21;100.00
62510;BME280;48558;48.242;11.654;2023-02-14T17:34:03;97841.50;;;0.40;100.00
62510;BME280;48558;48.242;11.654;2023-02-14T17:38:16;97846.78;;;0.52;100.00
62510;BME280;48558;48.242;11.654;2023-02-14T17:42:31;97836.75;;;0.37;100.00
62510;BME280;48558;48.242;11.654;2023-02-14T17:46:44;97848.50;;;0.22;100.00
62510;BME280;48558;48.242;11.654;2023-02-14T17:51:02;97851.59;;;0.20;100.00
62510;BME280;48558;48.242;11.654;2023-02-14T17:55:16;97856.16;;;0.16;100.00
62510;BME280;48558;48.242;11.654;2023-02-14T17:59:34;97852.84;;;0.07;100.00
62510;BME280;48558;48.242;11.654;2023-02-14T18:03:49;97856.03;;;0.28;100.00
62510;BME280;48558;48.242;11.654;2023-02-14T18:08:03;97856.00;;;-0.10;100.00
62510;BME280;48558;48.242;11.654;2023-02-14T18:12:15;97859.94;;;-0.08;100.00
62510;BME280;48558;48.242;11.654;2023-02-14T18:16:28;97845.16;;;-0.26;100.00
62510;BME280;48558;48.242;11.654;2023-02-14T18:20:41;97829.84;;;-0.34;100.00
62510;BME280;48558;48.242;11.654;2023-02-14T18:24:54;97844.94;;;-0.36;100.00
62510;BME280;48558;48.242;11.654;2023-02-14T18:29:09;97837.97;;;-0.18;100.00
62510;BME280;48558;48.242;11.654;2023-02-14T18:33:23;97823.31;;;-0.14;100.00
62510;BME280;48558;48.242;11.654;2023-02-14T18:37:36;97831.47;;;0.06;100.00
62510;BME280;48558;48.242;11.654;2023-02-14T18:41:48;97823.16;;;-0.21;100.00
62510;BME280;48558;48.242;11.654;2023-02-14T18:46:06;97814.28;;;-0.18;100.00
62510;BME280;48558;48.242;11.654;2023-02-14T18:50:20;97836.91;;;0.06;100.00
62510;BME280;48558;48.242;11.654;2023-02-14T18:54:35;97835.41;;;0.08;100.00
62510;BME280;48558;48.242;11.654;2023-02-14T18:58:50;97823.84;;;0.11;100.00
62510;BME280;48558;48.242;11.654;2023-02-14T19:03:05;97822.38;;;-0.02;100.00
62510;BME280;48558;48.242;11.654;2023-02-14T19:07:18;97816.66;;;0.03;100.00
62510;BME280;48558;48.242;11.654;2023-02-14T19:11:31;97823.59;;;0.00;100.00
62510;BME280;48558;48.242;11.654;2023-02-14T19:15:58;97819.91;;;-0.45;100.00
62510;BME280;48558;48.242;11.654;2023-02-14T19:20:12;97800.28;;;-0.39;100.00
62510;BME280;48558;48.242;11.654;2023-02-14T19:24:25;97822.81;;;-0.19;100.00
62510;BME280;48558;48.242;11.654;2023-02-14T19:28:53;97815.59;;;-0.12;100.00
62510;BME280;48558;48.242;11.654;2023-02-14T19:33:07;97779.19;;;-0.45;100.00
62510;BME280;48558;48.242;11.654;2023-02-14T19:37:19;97808.84;;;-0.18;100.00
62510;BME280;48558;48.242;11.654;2023-02-14T19:41:32;97814.59;;;-0.04;100.00
62510;BME280;48558;48.242;11.654;2023-02-14T19:45:45;97804.03;;;0.11;100.00
62510;BME280;48558;48.242;11.654;2023-02-14T19:49:58;97793.13;;;-0.09;100.00
62510;BME280;48558;48.242;11.654;2023-02-14T19:54:13;97799.16;;;0.00;100.00
62510;BME280;48558;48.242;11.654;2023-02-14T19:58:28;97779.69;;;-0.02;100.00
62510;BME280;48558;48.242;11.654;2023-02-14T20:02:41;97785.41;;;-0.26;100.00
62510;BME280;48558;48.242;11.654;2023-02-14T20:06:58;97780.38;;;-0.43;100.00
62510;BME280;48558;48.242;11.654;2023-02-14T20:11:25;97785.91;;;-0.20;100.00
62510;BME280;48558;48.242;11.654;2023-02-14T20:15:57;97777.34;;;-0.22;100.00
62510;BME280;48558;48.242;11.654;2023-02-14T20:20:10;97778.06;;;-0.06;100.00
62510;BME280;48558;48.242;11.654;2023-02-14T20:24:30;97781.84;;;-0.30;100.00
62510;BME280;48558;48.242;11.654;2023-02-14T20:28:43;97780.69;;;-0.48;100.00
62510;BME280;48558;48.242;11.654;2023-02-14T20:32:56;97760.19;;;-0.45;100.00
62510;BME280;48558;48.242;11.654;2023-02-14T20:37:09;97785.31;;;-0.48;100.00
62510;BME280;48558;48.242;11.654;2023-02-14T20:41:22;97772.97;;;-0.27;100.00
62510;BME280;48558;48.242;11.654;2023-02-14T20:45:35;97767.84;;;-0.13;100.00
62510;BME280;48558;48.242;11.654;2023-02-14T20:49:48;97761.06;;;-0.03;100.00
62510;BME280;48558;48.242;11.654;2023-02-14T20:54:11;97754.84;;;-0.23;100.00
62510;BME280;48558;48.242;11.654;2023-02-14T20:58:24;97752.75;;;-0.10;100.00
62510;BME280;48558;48.242;11.654;2023-02-14T21:02:36;97757.25;;;0.02;100.00
62510;BME280;48558;48.242;11.654;2023-02-14T21:06:49;97745.53;;;-0.03;100.00
62510;BME280;48558;48.242;11.654;2023-02-14T21:11:02;97737.59;;;-0.11;100.00
62510;BME280;48558;48.242;11.654;2023-02-14T21:15:16;97732.88;;;-0.33;100.00
62510;BME280;48558;48.242;11.654;2023-02-14T21:19:28;97744.75;;;-0.41;100.00
62510;BME280;48558;48.242;11.654;2023-02-14T21:23:42;97736.44;;;-0.29;100.00
62510;BME280;48558;48.242;11.654;2023-02-14T21:27:55;97731.38;;;-0.31;100.00
62510;BME280;48558;48.242;11.654;2023-02-14T21:32:08;97726.66;;;-0.34;100.00
62510;BME280;48558;48.242;11.654;2023-02-14T21:36:22;97739.75;;;-0.39;100.00
62510;BME280;48558;48.242;11.654;2023-02-14T21:40:36;97731.44;;;-0.46;100.00
62510;BME280;48558;48.242;11.654;2023-02-14T21:44:48;97743.44;;;-0.47;100.00
62510;BME280;48558;48.242;11.654;2023-02-14T21:49:30;97719.69;;;-1.04;100.00
62510;BME280;48558;48.242;11.654;2023-02-14T21:54:02;97727.22;;;-1.13;100.00
62510;BME280;48558;48.242;11.654;2023-02-14T21:58:14;97715.88;;;-0.84;100.00
62510;BME280;48558;48.242;11.654;2023-02-14T22:02:27;97715.56;;;-0.98;100.00
62510;BME280;48558;48.242;11.654;2023-02-14T22:06:40;97715.78;;;-0.88;100.00
62510;BME280;48558;48.242;11.654;2023-02-14T22:10:55;97718.03;;;-0.74;100.00
62510;BME280;48558;48.242;11.654;2023-02-14T22:15:08;97706.97;;;-0.65;100.00
62510;BME280;48558;48.242;11.654;2023-02-14T22:19:21;97679.50;;;-0.64;100.00
62510;BME280;48558;48.242;11.654;2023-02-14T22:23:34;97704.78;;;-0.60;100.00
62510;BME280;48558;48.242;11.654;2023-02-14T22:27:47;97685.06;;;-0.57;100.00
62510;BME280;48558;48.242;11.654;2023-02-14T22:32:09;97693.91;;;-0.60;100.00
62510;BME280;48558;48.242;11.654;2023-02-14T22:36:23;97699.22;;;-0.48;100.00
62510;BME280;48558;48.242;11.654;2023-02-14T22:40:35;97690.84;;;-0.58;100.00
62510;BME280;48558;48.242;11.654;2023-02-14T22:44:48;97690.56;;;-0.73;100.00
62510;BME280;48558;48.242;11.654;2023-02-14T22:49:01;97687.63;;;-0.64;100.00
62510;BME280;48558;48.242;11.654;2023-02-14T22:53:13;97690.94;;;-0.55;100.00
62510;BME280;48558;48.242;11.654;2023-02-14T22:57:26;97692.78;;;-0.94;100.00
62510;BME280;48558;48.242;11.654;2023-02-14T23:01:39;97696.47;;;-0.86;100.00
62510;BME280;48558;48.242;11.654;2023-02-14T23:05:55;97684.50;;;-1.01;100.00
62510;BME280;48558;48.242;11.654;2023-02-14T23:10:09;97690.06;;;-1.44;100.00
62510;BME280;48558;48.242;11.654;2023-02-14T23:14:22;97693.25;;;-1.07;100.00
62510;BME280;48558;48.242;11.654;2023-02-14T23:18:53;97685.50;;;-1.24;100.00
62510;BME280;48558;48.242;11.654;2023-02-14T23:23:24;97671.72;;;-1.51;100.00
62510;BME280;48558;48.242;11.654;2023-02-14T23:27:44;97671.47;;;-1.61;100.00
62510;BME280;48558;48.242;11.654;2023-02-14T23:32:00;97668.13;;;-1.39;100.00
62510;BME280;48558;48.242;11.654;2023-02-14T23:36:12;97679.28;;;-1.09;100.00
62510;BME280;48558;48.242;11.654;2023-02-14T23:40:25;97661.22;;;-1.52;100.00
62510;BME280;48558;48.242;11.654;2023-02-14T23:44:38;97665.44;;;-1.20;100.00
62510;BME280;48558;48.242;11.654;2023-02-14T23:48:51;97660.78;;;-1.54;100.00
62510;BME280;48558;48.242;11.654;2023-02-14T23:53:12;97659.81;;;-1.46;100.00
62510;BME280;48558;48.242;11.654;2023-02-14T23:57:26;97652.44;;;-1.30;100.00
